Time;durP1;ratioP1;P1;durP2;ratioP2;P2;SDS_P1;SDS_P2;PMS_P1;PMS_P2;Temp;Humidity;BMP_temperature;BMP_pressure;BME280_temperature;BME280_humidity;BME280_pressure;Samples;Min_cycle;Max_cycle;Signal;HPM_P1;HPM_P2
2023/11/08 00:01:02;;;;;;;0.70;0.30;;;6.90;99.90;;;;;;5133147;27;20422;-59
2023/11/08 00:03:29;;;;;;;1.40;0.40;;;7.00;99.90;;;;;;5133018;27;20910;-56
2023/11/08 00:05:56;;;;;;;1.60;0.30;;;7.00;99.90;;;;;;5132517;27;20410;-55
2023/11/08 00:08:24;;;;;;;0.53;0.30;;;7.10;99.90;;;;;;5132535;27;21113;-57
2023/11/08 00:10:52;;;;;;;1.38;0.40;;;7.10;99.90;;;;;;5132500;27;20733;-57
2023/11/08 00:13:20;;;;;;;0.60;0.40;;;7.20;99.90;;;;;;5132342;27;20771;-56
2023/11/08 00:15:48;;;;;;;0.70;0.30;;;7.20;99.90;;;;;;5133223;27;20422;-57
2023/11/08 00:18:16;;;;;;;0.50;0.30;;;7.10;99.90;;;;;;5134158;27;20453;-56
2023/11/08 00:20:45;;;;;;;0.50;0.30;;;7.20;99.90;;;;;;5133286;27;20426;-56
2023/11/08 00:23:12;;;;;;;0.60;0.30;;;7.20;99.90;;;;;;5133968;27;20418;-56
2023/11/08 00:25:39;;;;;;;0.80;0.30;;;7.20;99.90;;;;;;5133290;27;20438;-53
2023/11/08 00:28:07;;;;;;;0.73;0.30;;;7.30;99.90;;;;;;5133229;27;20487;-57
2023/11/08 00:30:34;;;;;;;0.57;0.30;;;7.40;99.90;;;;;;5132887;27;20414;-57
2023/11/08 00:33:01;;;;;;;0.90;0.30;;;7.50;99.90;;;;;;5132960;27;20755;-54
2023/11/08 00:35:28;;;;;;;0.73;0.30;;;7.60;99.90;;;;;;5132249;27;20776;-56
2023/11/08 00:37:55;;;;;;;1.80;0.30;;;7.70;99.90;;;;;;5133728;27;20426;-55
2023/11/08 00:40:22;;;;;;;0.70;0.30;;;7.70;99.90;;;;;;5132838;27;20455;-57
2023/11/08 00:42:49;;;;;;;1.40;0.30;;;7.90;99.90;;;;;;5132876;27;20422;-55
2023/11/08 00:45:18;;;;;;;0.60;0.30;;;7.90;99.90;;;;;;5133034;27;20421;-56
2023/11/08 00:47:45;;;;;;;0.63;0.25;;;7.90;99.90;;;;;;5132855;27;20418;-57
2023/11/08 00:50:12;;;;;;;0.60;0.30;;;7.90;99.90;;;;;;5132901;27;20425;-56
2023/11/08 00:52:39;;;;;;;0.50;0.20;;;7.90;99.90;;;;;;5132855;27;20433;-56
2023/11/08 00:55:07;;;;;;;1.73;0.30;;;7.90;99.90;;;;;;5132171;27;20424;-56
2023/11/08 00:57:34;;;;;;;0.40;0.20;;;8.00;99.90;;;;;;5131793;27;20415;-56
2023/11/08 01:00:01;;;;;;;0.30;0.20;;;8.00;99.90;;;;;;5132421;27;20430;-55
2023/11/08 01:02:29;;;;;;;0.60;0.30;;;8.00;99.90;;;;;;5133541;27;20419;-53
2023/11/08 01:04:56;;;;;;;1.10;0.30;;;8.10;99.90;;;;;;5132670;27;20466;-57
2023/11/08 01:07:23;;;;;;;0.80;0.30;;;8.00;99.90;;;;;;5132835;27;20459;-56
2023/11/08 01:09:50;;;;;;;1.45;0.30;;;7.90;99.90;;;;;;5133740;27;20475;-56
2023/11/08 01:12:17;;;;;;;1.00;0.30;;;7.90;99.90;;;;;;5133556;27;20422;-56
2023/11/08 01:14:44;;;;;;;1.20;0.30;;;7.80;99.90;;;;;;5133358;27;20414;-55
2023/11/08 01:17:11;;;;;;;0.60;0.30;;;7.80;99.90;;;;;;5132404;27;20902;-55
2023/11/08 01:19:39;;;;;;;0.60;0.30;;;7.70;99.90;;;;;;5131866;27;20475;-54
2023/11/08 01:22:08;;;;;;;1.10;0.20;;;7.60;99.90;;;;;;5132771;27;20856;-54
2023/11/08 01:24:35;;;;;;;0.73;0.20;;;7.60;1.00;;;;;;5133019;27;20907;-55
2023/11/08 01:27:02;;;;;;;0.60;0.30;;;7.60;1.00;;;;;;5131719;27;20521;-57
2023/11/08 01:29:30;;;;;;;0.73;0.30;;;7.60;1.00;;;;;;5132171;27;20414;-56
2023/11/08 01:31:57;;;;;;;1.30;0.20;;;7.60;1.00;;;;;;5132172;27;20854;-57
2023/11/08 01:34:24;;;;;;;1.40;0.30;;;7.60;1.00;;;;;;5132015;27;20462;-57
2023/11/08 01:36:53;;;;;;;0.60;0.30;;;7.60;1.00;;;;;;5131771;27;20475;-56
2023/11/08 01:39:20;;;;;;;0.60;0.20;;;7.50;56.50;;;;;;5131776;27;20418;-57
2023/11/08 01:41:49;;;;;;;0.45;0.20;;;7.40;71.40;;;;;;5132835;27;20475;-56
2023/11/08 01:44:18;;;;;;;0.40;0.20;;;7.40;1.00;;;;;;5131356;27;20853;-57
2023/11/08 01:46:47;;;;;;;0.60;0.40;;;7.40;1.00;;;;;;5131872;27;20479;-56
2023/11/08 01:49:14;;;;;;;1.00;0.30;;;7.40;96.90;;;;;;5134945;27;20422;-56
2023/11/08 01:51:41;;;;;;;0.60;0.30;;;7.20;15.10;;;;;;5136132;27;20914;-55
2023/11/08 01:54:10;;;;;;;0.90;0.30;;;7.20;1.00;;;;;;5136739;27;20895;-57
2023/11/08 01:56:38;;;;;;;1.48;0.20;;;7.20;1.00;;;;;;5137309;27;20425;-57
2023/11/08 01:59:08;;;;;;;0.90;0.30;;;7.10;1.00;;;;;;5135831;27;20842;-58
2023/11/08 02:01:35;;;;;;;0.60;0.30;;;7.10;1.00;;;;;;5135224;27;20473;-57
2023/11/08 02:04:02;;;;;;;0.60;0.30;;;7.10;14.40;;;;;;5135158;27;20410;-57
2023/11/08 02:06:29;;;;;;;0.80;0.30;;;7.10;2.70;;;;;;5134981;27;20767;-54
2023/11/08 02:08:56;;;;;;;0.60;0.30;;;7.10;1.00;;;;;;5133803;27;20775;-57
2023/11/08 02:11:25;;;;;;;1.20;0.30;;;7.10;5.30;;;;;;5134592;27;20438;-57
2023/11/08 02:13:52;;;;;;;0.80;0.30;;;7.10;1.00;;;;;;5135676;27;20468;-53
2023/11/08 02:16:19;;;;;;;0.60;0.30;;;7.00;1.00;;;;;;5134963;27;20491;-56
2023/11/08 02:18:46;;;;;;;0.80;0.20;;;7.10;12.00;;;;;;5135181;27;20737;-57
2023/11/08 02:21:14;;;;;;;1.10;0.30;;;7.10;12.10;;;;;;5135406;27;20474;-57
2023/11/08 02:23:41;;;;;;;1.50;0.20;;;7.10;6.20;;;;;;5136588;27;20485;-58
2023/11/08 02:26:09;;;;;;;0.40;0.20;;;7.00;1.00;;;;;;5135845;27;20426;-58
2023/11/08 02:28:38;;;;;;;1.10;0.20;;;6.90;1.00;;;;;;5134677;27;20936;-57
2023/11/08 02:31:05;;;;;;;0.50;0.30;;;7.00;21.30;;;;;;5134710;27;20430;-56
2023/11/08 02:33:32;;;;;;;0.70;0.20;;;7.00;3.80;;;;;;5135450;27;20495;-57
2023/11/08 02:36:00;;;;;;;1.10;0.20;;;6.90;4.20;;;;;;5135031;27;20857;-57
2023/11/08 02:38:28;;;;;;;1.60;0.20;;;6.80;4.60;;;;;;5135090;27;20427;-57
2023/11/08 02:40:55;;;;;;;0.47;0.20;;;6.90;31.80;;;;;;5132350;27;20420;-57
2023/11/08 02:43:25;;;;;;;0.40;0.20;;;6.90;20.00;;;;;;5132039;27;20683;-57
2023/11/08 02:45:53;;;;;;;2.10;0.30;;;6.90;9.90;;;;;;5132041;27;20851;-54
2023/11/08 02:48:21;;;;;;;0.40;0.20;;;7.00;17.00;;;;;;5132082;27;20849;-56
2023/11/08 02:50:50;;;;;;;1.33;0.20;;;6.90;6.20;;;;;;5132574;27;20414;-57
2023/11/08 02:53:20;;;;;;;1.75;0.20;;;6.90;4.70;;;;;;5133744;27;20434;-55
2023/11/08 02:55:47;;;;;;;1.08;0.30;;;6.90;21.50;;;;;;5135202;27;20512;-55
2023/11/08 02:58:14;;;;;;;0.90;0.20;;;6.80;16.80;;;;;;5134616;27;20425;-57
2023/11/08 03:00:42;;;;;;;0.40;0.20;;;6.80;24.60;;;;;;5135473;27;20483;-54
2023/11/08 03:03:09;;;;;;;0.80;0.30;;;6.80;23.20;;;;;;5133982;27;21233;-58
2023/11/08 03:05:36;;;;;;;0.60;0.20;;;6.90;34.80;;;;;;5135102;27;20505;-54
2023/11/08 03:08:05;;;;;;;0.60;0.20;;;6.90;25.50;;;;;;5134899;27;20422;-57
2023/11/08 03:10:34;;;;;;;0.40;0.20;;;6.90;28.30;;;;;;5134324;27;20465;-56
2023/11/08 03:13:01;;;;;;;0.80;0.20;;;6.80;23.20;;;;;;5134146;27;20478;-55
2023/11/08 03:15:28;;;;;;;0.50;0.20;;;6.80;38.50;;;;;;5132975;27;20403;-55
2023/11/08 03:17:55;;;;;;;0.40;0.20;;;6.90;57.70;;;;;;5134047;27;20772;-56
2023/11/08 03:20:23;;;;;;;1.20;0.20;;;6.90;48.20;;;;;;5134701;27;20450;-54
2023/11/08 03:22:50;;;;;;;1.00;0.30;;;6.90;33.10;;;;;;5133698;27;20797;-54
2023/11/08 03:25:17;;;;;;;0.50;0.20;;;6.80;99.90;;;;;;5133383;27;20418;-55
2023/11/08 03:27:46;;;;;;;0.90;0.30;;;6.80;99.90;;;;;;5134383;27;20501;-56
2023/11/08 03:30:15;;;;;;;0.50;0.25;;;6.80;99.90;;;;;;5132293;27;20489;-56
2023/11/08 03:32:42;;;;;;;0.50;0.20;;;6.70;99.90;;;;;;5133685;27;20857;-53
2023/11/08 03:35:12;;;;;;;0.70;0.30;;;6.70;99.90;;;;;;5134417;27;20425;-56
2023/11/08 03:37:42;;;;;;;0.50;0.25;;;6.70;99.90;;;;;;5133646;27;20423;-57
2023/11/08 03:40:11;;;;;;;0.60;0.20;;;6.70;99.90;;;;;;5133475;27;20704;-56
2023/11/08 03:42:39;;;;;;;0.80;0.30;;;6.70;99.90;;;;;;5133087;27;20422;-57
2023/11/08 03:45:08;;;;;;;0.57;0.30;;;6.80;99.90;;;;;;5133652;27;20418;-55
2023/11/08 03:47:35;;;;;;;0.50;0.20;;;6.80;99.90;;;;;;5133558;27;20430;-57
2023/11/08 03:50:02;;;;;;;0.90;0.30;;;6.90;99.90;;;;;;5133172;27;20657;-57
2023/11/08 03:52:31;;;;;;;0.50;0.30;;;7.10;99.90;;;;;;5133318;27;20442;-56
2023/11/08 03:54:59;;;;;;;1.00;0.20;;;7.20;99.90;;;;;;5133316;27;20478;-56
2023/11/08 03:57:26;;;;;;;0.68;0.30;;;7.20;99.90;;;;;;5133204;27;20463;-55
2023/11/08 03:59:54;;;;;;;0.60;0.30;;;7.30;99.90;;;;;;5133850;27;20414;-56
2023/11/08 04:02:21;;;;;;;0.90;0.20;;;7.30;99.90;;;;;;5133779;27;20734;-55
2023/11/08 04:04:48;;;;;;;0.90;0.20;;;7.40;99.90;;;;;;5133795;27;20511;-53
2023/11/08 04:07:15;;;;;;;0.50;0.30;;;7.50;99.90;;;;;;5133782;27;20776;-54
2023/11/08 04:09:45;;;;;;;0.50;0.30;;;7.60;99.90;;;;;;5132891;27;20478;-54
2023/11/08 04:12:12;;;;;;;1.20;0.30;;;7.60;99.90;;;;;;5132243;27;20469;-53
2023/11/08 04:14:40;;;;;;;0.50;0.30;;;7.60;99.90;;;;;;5132883;27;20809;-54
2023/11/08 04:17:08;;;;;;;0.60;0.20;;;7.60;99.90;;;;;;5133423;27;20525;-55
2023/11/08 04:19:36;;;;;;;1.10;0.25;;;7.80;99.90;;;;;;5134212;27;20422;-52
2023/11/08 04:22:03;;;;;;;0.70;0.30;;;7.90;99.90;;;;;;5133820;27;20458;-56
2023/11/08 04:24:30;;;;;;;0.80;0.40;;;8.00;99.90;;;;;;5133295;27;20554;-55
2023/11/08 04:26:59;;;;;;;1.10;0.30;;;8.00;99.90;;;;;;5131818;27;20411;-55
2023/11/08 04:29:27;;;;;;;1.20;0.30;;;8.00;99.90;;;;;;5132606;27;20445;-54
2023/11/08 04:31:53;;;;;;;0.50;0.20;;;7.90;99.90;;;;;;5132208;27;20414;-57
2023/11/08 04:34:20;;;;;;;1.48;0.30;;;7.90;99.90;;;;;;5132017;27;20422;-52
2023/11/08 04:36:48;;;;;;;0.52;0.30;;;7.90;99.90;;;;;;5132487;27;20494;-54
2023/11/08 04:39:16;;;;;;;1.40;0.30;;;7.90;99.90;;;;;;5132051;27;20443;-54
2023/11/08 04:41:44;;;;;;;1.60;0.30;;;7.90;99.90;;;;;;5131656;27;20853;-54
2023/11/08 04:44:13;;;;;;;0.90;0.30;;;7.80;99.90;;;;;;5130517;27;20426;-56
2023/11/08 04:46:41;;;;;;;1.20;0.20;;;7.90;99.90;;;;;;5131013;27;20491;-55
2023/11/08 04:49:09;;;;;;;1.00;0.30;;;7.80;99.90;;;;;;5131418;27;20458;-52
2023/11/08 04:51:36;;;;;;;1.70;0.30;;;7.70;99.90;;;;;;5132729;27;20457;-55
2023/11/08 04:54:03;;;;;;;1.80;0.30;;;7.70;99.90;;;;;;5132338;27;20458;-54
2023/11/08 04:56:30;;;;;;;0.50;0.20;;;7.70;99.90;;;;;;5132402;27;20425;-55
2023/11/08 04:58:58;;;;;;;0.50;0.30;;;7.80;99.90;;;;;;5131438;27;20429;-55
2023/11/08 05:01:28;;;;;;;0.60;0.30;;;7.60;99.90;;;;;;5132400;27;20445;-55
2023/11/08 05:03:55;;;;;;;0.80;0.30;;;7.60;99.90;;;;;;5129772;27;20517;-55
2023/11/08 05:06:22;;;;;;;0.98;0.30;;;7.60;99.90;;;;;;5128173;27;20772;-55
2023/11/08 05:08:50;;;;;;;1.00;0.30;;;7.60;99.90;;;;;;5129090;27;20486;-54
2023/11/08 05:11:17;;;;;;;0.77;0.28;;;7.60;99.90;;;;;;5128986;27;20674;-54
2023/11/08 05:13:45;;;;;;;0.47;0.20;;;7.50;5.80;;;;;;5129428;27;20433;-55
2023/11/08 05:16:12;;;;;;;0.50;0.30;;;7.50;3.40;;;;;;5130257;27;20715;-55
2023/11/08 05:18:41;;;;;;;0.57;0.30;;;7.50;13.70;;;;;;5131098;27;20487;-54
2023/11/08 05:21:12;;;;;;;1.60;0.40;;;7.50;16.00;;;;;;5131238;27;20849;-55
2023/11/08 05:23:39;;;;;;;0.55;0.20;;;7.50;18.30;;;;;;5134046;27;20422;-57
2023/11/08 05:26:06;;;;;;;0.60;0.20;;;7.50;20.10;;;;;;5134582;27;20422;-56
2023/11/08 05:28:33;;;;;;;1.08;0.20;;;7.50;99.90;;;;;;5134352;27;20577;-57
2023/11/08 05:31:00;;;;;;;0.50;0.22;;;7.50;99.90;;;;;;5133685;27;20829;-57
2023/11/08 05:33:27;;;;;;;1.20;0.30;;;7.40;99.90;;;;;;5132941;27;20726;-58
2023/11/08 05:35:55;;;;;;;1.00;0.30;;;7.40;27.40;;;;;;5132857;27;20414;-58
2023/11/08 05:38:23;;;;;;;1.40;0.30;;;7.40;99.90;;;;;;5131734;27;20461;-56
2023/11/08 05:40:49;;;;;;;0.60;0.28;;;7.40;99.90;;;;;;5132289;27;20410;-57
2023/11/08 05:43:16;;;;;;;1.10;0.30;;;7.30;99.90;;;;;;5133087;27;20471;-53
2023/11/08 05:45:43;;;;;;;1.10;0.30;;;7.20;99.90;;;;;;5133833;27;20414;-53
2023/11/08 05:48:10;;;;;;;1.50;0.30;;;7.20;99.90;;;;;;5133288;27;20419;-55
2023/11/08 05:50:37;;;;;;;0.70;0.30;;;7.20;99.90;;;;;;5134412;27;20876;-56
2023/11/08 05:53:06;;;;;;;0.73;0.30;;;7.20;99.90;;;;;;5133915;27;20855;-55
2023/11/08 05:55:33;;;;;;;1.20;0.30;;;7.20;99.90;;;;;;5130937;27;20425;-55
2023/11/08 05:58:00;;;;;;;1.00;0.43;;;7.30;99.90;;;;;;5133027;27;20418;-55
2023/11/08 06:00:26;;;;;;;1.10;0.40;;;7.30;99.90;;;;;;5133613;27;20410;-54
2023/11/08 06:02:53;;;;;;;0.75;0.40;;;7.30;99.90;;;;;;5133055;27;20778;-56
2023/11/08 06:05:21;;;;;;;0.77;0.30;;;7.40;99.90;;;;;;5134129;27;20471;-56
2023/11/08 06:07:48;;;;;;;0.90;0.40;;;7.40;99.90;;;;;;5134034;27;20729;-54
2023/11/08 06:10:16;;;;;;;1.00;0.30;;;7.30;99.90;;;;;;5133375;27;20418;-56
2023/11/08 06:12:45;;;;;;;1.10;0.40;;;7.30;99.90;;;;;;5131768;27;20430;-56
2023/11/08 06:15:12;;;;;;;0.63;0.35;;;7.20;99.90;;;;;;5131668;27;20418;-55
2023/11/08 06:17:39;;;;;;;2.40;0.60;;;7.20;99.90;;;;;;5132845;27;20410;-54
2023/11/08 06:20:09;;;;;;;0.77;0.40;;;7.20;99.90;;;;;;5133401;27;20650;-57
2023/11/08 06:22:36;;;;;;;0.70;0.40;;;7.20;99.90;;;;;;5132783;27;20517;-53
2023/11/08 06:25:03;;;;;;;0.80;0.40;;;7.20;99.90;;;;;;5131181;27;20608;-55
2023/11/08 06:27:31;;;;;;;3.50;0.40;;;7.30;99.90;;;;;;5130728;27;20414;-58
2023/11/08 06:29:58;;;;;;;2.40;0.40;;;7.30;99.90;;;;;;5130905;27;20410;-59
2023/11/08 06:32:25;;;;;;;1.10;0.40;;;7.20;99.90;;;;;;5132200;27;20746;-58
2023/11/08 06:34:52;;;;;;;0.80;0.40;;;7.20;99.90;;;;;;5131202;27;20465;-59
2023/11/08 06:37:19;;;;;;;1.20;0.40;;;7.20;99.90;;;;;;5129859;27;20623;-58
2023/11/08 06:39:47;;;;;;;1.00;0.40;;;7.20;22.90;;;;;;5129549;27;20763;-59
2023/11/08 06:42:14;;;;;;;1.60;0.30;;;7.10;99.90;;;;;;5129166;27;20421;-59
2023/11/08 06:44:43;;;;;;;1.10;0.40;;;7.10;99.90;;;;;;5129144;27;20414;-59
2023/11/08 06:47:11;;;;;;;0.57;0.30;;;7.20;99.90;;;;;;5128920;27;20522;-59
2023/11/08 06:49:38;;;;;;;2.00;0.40;;;7.20;99.90;;;;;;5128615;27;20917;-59
2023/11/08 06:52:06;;;;;;;1.13;0.40;;;7.20;99.90;;;;;;5130327;27;20410;-59
2023/11/08 06:54:34;;;;;;;0.60;0.38;;;7.20;99.90;;;;;;5128654;27;20587;-59
2023/11/08 06:57:03;;;;;;;1.40;0.30;;;7.20;99.90;;;;;;5128442;27;20418;-58
2023/11/08 06:59:30;;;;;;;1.20;0.30;;;7.30;99.90;;;;;;5127524;27;20521;-59
2023/11/08 07:01:58;;;;;;;1.20;0.40;;;7.30;99.90;;;;;;5127089;27;20498;-59
2023/11/08 07:04:25;;;;;;;1.58;0.40;;;7.30;99.90;;;;;;5127457;27;20526;-59
2023/11/08 07:06:52;;;;;;;0.60;0.30;;;7.40;99.90;;;;;;5126732;27;20441;-60
2023/11/08 07:09:20;;;;;;;1.20;0.30;;;7.40;99.90;;;;;;5125934;27;20849;-56
2023/11/08 07:11:48;;;;;;;0.60;0.30;;;7.50;99.90;;;;;;5126941;27;20738;-59
2023/11/08 07:14:15;;;;;;;0.70;0.30;;;7.60;99.90;;;;;;5127141;27;20529;-59
2023/11/08 07:16:43;;;;;;;0.50;0.30;;;7.60;99.90;;;;;;5123877;27;20759;-59
2023/11/08 07:19:12;;;;;;;1.90;0.40;;;7.80;99.90;;;;;;5123340;27;20745;-59
2023/11/08 07:21:40;;;;;;;1.50;0.30;;;8.00;99.90;;;;;;5126949;27;20425;-58
2023/11/08 07:24:07;;;;;;;0.60;0.30;;;8.00;99.90;;;;;;5126742;27;20399;-59
2023/11/08 07:26:34;;;;;;;0.65;0.30;;;8.00;99.90;;;;;;5125687;27;20506;-59
2023/11/08 07:29:04;;;;;;;0.50;0.30;;;8.00;99.90;;;;;;5127769;27;20765;-59
2023/11/08 07:31:31;;;;;;;0.70;0.30;;;8.00;99.90;;;;;;5124923;27;20849;-58
2023/11/08 07:33:58;;;;;;;1.50;0.30;;;7.90;99.90;;;;;;5124495;27;20524;-59
2023/11/08 07:36:29;;;;;;;0.43;0.20;;;8.00;99.90;;;;;;5124095;27;20425;-58
2023/11/08 07:38:56;;;;;;;0.70;0.40;;;8.00;99.90;;;;;;5125219;27;20500;-58
2023/11/08 07:41:23;;;;;;;1.00;0.30;;;8.00;99.90;;;;;;5124022;27;20426;-58
2023/11/08 07:43:50;;;;;;;0.50;0.30;;;8.10;99.90;;;;;;5125663;27;20891;-58
2023/11/08 07:46:17;;;;;;;0.60;0.30;;;8.10;99.90;;;;;;5124239;27;20451;-58
2023/11/08 07:48:44;;;;;;;1.38;0.30;;;8.10;99.90;;;;;;5125301;27;20434;-58
2023/11/08 07:51:11;;;;;;;0.45;0.30;;;8.10;99.90;;;;;;5124965;27;20437;-57
2023/11/08 07:53:40;;;;;;;0.77;0.30;;;8.10;99.90;;;;;;5126030;27;20715;-58
2023/11/08 07:56:08;;;;;;;0.70;0.30;;;8.20;99.90;;;;;;5125383;27;20623;-57
2023/11/08 07:58:35;;;;;;;1.55;0.30;;;8.10;99.90;;;;;;5127021;27;20465;-58
2023/11/08 08:01:02;;;;;;;0.90;0.30;;;8.20;99.90;;;;;;5125449;27;20452;-57
2023/11/08 08:03:29;;;;;;;0.40;0.30;;;8.20;99.90;;;;;;5124908;27;20468;-58
2023/11/08 08:05:57;;;;;;;0.60;0.30;;;8.20;99.90;;;;;;5126732;27;20414;-58
2023/11/08 08:08:25;;;;;;;0.60;0.30;;;8.20;99.90;;;;;;5125616;27;20449;-58
2023/11/08 08:10:54;;;;;;;0.60;0.40;;;8.30;99.90;;;;;;5124510;27;20510;-57
2023/11/08 08:13:21;;;;;;;0.90;0.40;;;8.40;99.90;;;;;;5119761;27;20550;-57
2023/11/08 08:15:48;;;;;;;0.60;0.30;;;8.40;99.90;;;;;;5123179;27;20429;-57
2023/11/08 08:18:15;;;;;;;0.80;0.40;;;8.40;99.90;;;;;;5117397;27;20853;-52
2023/11/08 08:20:42;;;;;;;0.80;0.35;;;8.50;99.90;;;;;;5119630;27;20430;-57
2023/11/08 08:23:10;;;;;;;1.35;0.40;;;8.80;99.90;;;;;;5122193;27;20430;-56
2023/11/08 08:25:39;;;;;;;0.60;0.30;;;9.00;99.90;;;;;;5120035;27;20418;-56
2023/11/08 08:28:08;;;;;;;0.50;0.30;;;8.90;99.90;;;;;;5123181;27;20418;-57
2023/11/08 08:30:35;;;;;;;0.70;0.30;;;8.80;99.90;;;;;;5122213;27;20747;-56
2023/11/08 08:33:05;;;;;;;0.60;0.40;;;8.80;99.90;;;;;;5124148;27;20437;-57
2023/11/08 08:35:32;;;;;;;1.30;0.30;;;8.80;99.90;;;;;;5123175;27;20450;-56
2023/11/08 08:37:59;;;;;;;0.70;0.40;;;8.80;99.90;;;;;;5124594;27;20932;-56
2023/11/08 08:40:27;;;;;;;0.50;0.30;;;8.80;99.90;;;;;;5120631;27;20431;-56
2023/11/08 08:42:54;;;;;;;0.70;0.30;;;8.80;99.90;;;;;;5124871;27;20420;-55
2023/11/08 08:45:22;;;;;;;0.60;0.30;;;8.80;99.90;;;;;;5124737;27;20422;-57
2023/11/08 08:47:52;;;;;;;0.50;0.20;;;8.90;99.90;;;;;;5126732;27;20411;-58
2023/11/08 08:50:19;;;;;;;0.50;0.30;;;9.00;99.90;;;;;;5123203;27;20792;-58
2023/11/08 08:52:46;;;;;;;1.10;0.20;;;9.10;99.90;;;;;;5124431;27;20651;-54
2023/11/08 08:55:14;;;;;;;0.40;0.20;;;9.20;99.90;;;;;;5119781;27;20438;-57
2023/11/08 08:57:45;;;;;;;0.80;0.20;;;9.30;99.90;;;;;;5120583;27;20513;-57
2023/11/08 09:00:15;;;;;;;0.40;0.20;;;9.40;99.90;;;;;;5121773;27;20733;-58
2023/11/08 09:02:44;;;;;;;0.57;0.22;;;9.50;99.90;;;;;;5121745;27;20434;-57
2023/11/08 09:05:11;;;;;;;0.80;0.20;;;9.60;99.90;;;;;;5121914;27;20541;-56
2023/11/08 09:07:39;;;;;;;0.50;0.20;;;9.60;99.90;;;;;;5123626;27;20418;-55
2023/11/08 09:10:09;;;;;;;1.00;0.20;;;9.60;99.90;;;;;;5123703;27;20737;-57
2023/11/08 09:12:36;;;;;;;0.50;0.20;;;9.60;99.90;;;;;;5122452;27;20439;-57
2023/11/08 09:15:04;;;;;;;0.50;0.20;;;9.60;99.90;;;;;;5124772;27;20621;-55
2023/11/08 09:17:31;;;;;;;0.40;0.20;;;9.60;99.90;;;;;;5123485;27;20470;-57
2023/11/08 09:20:03;;;;;;;0.70;0.20;;;9.70;99.90;;;;;;5125799;27;20426;-57
2023/11/08 09:22:30;;;;;;;0.50;0.20;;;9.70;99.90;;;;;;5123474;27;20781;-57
2023/11/08 09:24:58;;;;;;;0.57;0.20;;;9.80;99.90;;;;;;5124339;27;20996;-57
2023/11/08 09:27:27;;;;;;;0.50;0.20;;;9.80;99.90;;;;;;5121750;27;20431;-56
2023/11/08 09:29:55;;;;;;;2.40;0.30;;;9.90;99.90;;;;;;5122044;27;20452;-57
2023/11/08 09:32:25;;;;;;;0.50;0.20;;;9.90;99.90;;;;;;5122608;27;20443;-58
2023/11/08 09:34:56;;;;;;;0.40;0.20;;;10.10;99.90;;;;;;5123848;27;20885;-54
2023/11/08 09:37:27;;;;;;;0.45;0.20;;;10.20;99.90;;;;;;5123499;28;20430;-57
2023/11/08 09:39:56;;;;;;;0.60;0.20;;;10.20;99.90;;;;;;5123925;27;20414;-57
2023/11/08 09:42:26;;;;;;;0.50;0.20;;;10.20;99.90;;;;;;5123001;27;20674;-57
2023/11/08 09:44:53;;;;;;;0.40;0.20;;;10.30;99.90;;;;;;5118030;27;20587;-57
2023/11/08 09:47:22;;;;;;;0.50;0.20;;;10.30;99.90;;;;;;5125223;27;20467;-57
2023/11/08 09:49:50;;;;;;;0.50;0.20;;;10.30;99.90;;;;;;5121689;27;20462;-57
2023/11/08 09:52:17;;;;;;;0.30;0.20;;;10.30;99.90;;;;;;5124995;27;20414;-55
2023/11/08 09:54:46;;;;;;;1.00;0.20;;;10.40;99.90;;;;;;5118918;27;20437;-56
2023/11/08 09:57:14;;;;;;;0.30;0.20;;;10.40;99.90;;;;;;5121913;27;20458;-57
2023/11/08 09:59:42;;;;;;;0.50;0.20;;;10.40;99.90;;;;;;5121532;27;20430;-57
2023/11/08 10:02:11;;;;;;;0.50;0.20;;;10.50;99.90;;;;;;5124147;27;20434;-58
2023/11/08 10:04:39;;;;;;;0.55;0.20;;;10.40;99.90;;;;;;5124812;27;20415;-56
2023/11/08 10:07:07;;;;;;;0.90;0.28;;;10.50;99.90;;;;;;5124163;27;20426;-57
2023/11/08 10:09:36;;;;;;;1.90;0.30;;;10.50;99.90;;;;;;5127033;27;20533;-59
2023/11/08 10:12:07;;;;;;;0.40;0.20;;;10.60;99.90;;;;;;5129825;27;20421;-56
2023/11/08 10:14:36;;;;;;;0.93;0.20;;;10.50;99.90;;;;;;5128029;27;20422;-57
2023/11/08 10:17:04;;;;;;;0.55;0.22;;;10.50;99.90;;;;;;5127787;27;20861;-57
2023/11/08 10:19:43;;;;;;;0.50;0.20;;;10.60;99.90;;;;;;5127895;27;20434;-57
2023/11/08 10:22:19;;;;;;;1.00;0.30;;;10.50;99.90;;;;;;5133153;27;20458;-57
2023/11/08 10:24:54;;;;;;;0.50;0.30;;;10.40;99.90;;;;;;5110599;28;20799;-58
2023/11/08 10:27:23;;;;;;;0.80;0.20;;;10.30;99.90;;;;;;5110358;28;20537;-57
2023/11/08 10:29:51;;;;;;;0.70;0.30;;;10.40;99.90;;;;;;5124597;27;20487;-57
2023/11/08 10:32:20;;;;;;;0.70;0.20;;;10.50;99.90;;;;;;5130433;27;20414;-58
2023/11/08 10:34:48;;;;;;;0.50;0.20;;;10.70;99.90;;;;;;5109051;28;20781;-58
2023/11/08 10:37:25;;;;;;;0.65;0.20;;;11.00;99.90;;;;;;5110280;27;20922;-57
2023/11/08 10:39:53;;;;;;;1.67;0.20;;;11.10;99.90;;;;;;5127440;27;20764;-57
2023/11/08 10:42:21;;;;;;;0.88;0.30;;;11.30;99.90;;;;;;5126653;27;20433;-58
2023/11/08 10:44:51;;;;;;;0.50;0.20;;;11.30;99.90;;;;;;5128246;27;20509;-56
2023/11/08 10:47:20;;;;;;;0.80;0.30;;;11.20;99.90;;;;;;5125909;27;20422;-56
2023/11/08 10:49:50;;;;;;;0.80;0.30;;;11.20;99.90;;;;;;5128363;27;20793;-57
2023/11/08 10:52:19;;;;;;;0.70;0.20;;;11.50;99.90;;;;;;5124388;27;20984;-58
2023/11/08 10:54:47;;;;;;;0.40;0.20;;;11.60;99.90;;;;;;5124987;27;20449;-56
2023/11/08 10:57:18;;;;;;;0.50;0.20;;;11.60;99.90;;;;;;5124146;27;20542;-56
2023/11/08 10:59:52;;;;;;;0.93;0.20;;;11.60;99.90;;;;;;5127459;27;20480;-59
2023/11/08 11:02:35;;;;;;;0.50;0.30;;;11.80;99.90;;;;;;5125210;27;20436;-56
2023/11/08 11:05:04;;;;;;;0.50;0.20;;;11.70;99.90;;;;;;5127319;27;20429;-58
2023/11/08 11:07:34;;;;;;;0.80;0.20;;;11.50;99.90;;;;;;5126675;27;20414;-55
2023/11/08 11:10:02;;;;;;;1.00;0.20;;;11.30;99.90;;;;;;5127109;27;20706;-57
2023/11/08 11:12:38;;;;;;;0.50;0.20;;;11.30;99.90;;;;;;5126277;27;20431;-54
2023/11/08 11:15:11;;;;;;;0.50;0.20;;;11.10;99.90;;;;;;5126847;27;20426;-57
2023/11/08 11:17:45;;;;;;;0.40;0.20;;;11.10;99.90;;;;;;5124183;27;20726;-54
2023/11/08 11:20:16;;;;;;;1.10;0.30;;;11.20;99.90;;;;;;5120374;27;20428;-58
2023/11/08 11:22:43;;;;;;;0.60;0.20;;;11.10;99.90;;;;;;5127898;27;20429;-58
2023/11/08 11:25:13;;;;;;;1.83;0.30;;;11.20;99.90;;;;;;5128293;27;20919;-57
2023/11/08 11:27:47;;;;;;;0.40;0.20;;;11.20;99.90;;;;;;5127579;27;20490;-55
2023/11/08 11:30:27;;;;;;;0.70;0.20;;;11.20;99.90;;;;;;5122985;27;20440;-56
2023/11/08 11:32:58;;;;;;;0.50;0.20;;;11.30;99.90;;;;;;5124365;27;20695;-57
2023/11/08 11:35:55;;;;;;;0.40;0.20;;;11.60;99.90;;;;;;5125825;27;20426;-55
2023/11/08 11:38:26;;;;;;;0.50;0.20;;;11.80;99.90;;;;;;5117851;27;20537;-57
2023/11/08 11:41:18;;;;;;;0.30;0.20;;;11.70;99.90;;;;;;5124786;27;20703;-57
2023/11/08 11:43:45;;;;;;;0.50;0.20;;;11.90;99.90;;;;;;5124775;27;20625;-58
2023/11/08 11:46:20;;;;;;;0.30;0.20;;;12.10;99.90;;;;;;5124910;27;20406;-58
2023/11/08 11:49:03;;;;;;;1.70;0.20;;;12.30;99.90;;;;;;5126260;27;20439;-58
2023/11/08 11:51:30;;;;;;;0.30;0.20;;;12.50;99.90;;;;;;5123955;27;20518;-58
2023/11/08 11:53:58;;;;;;;0.50;0.20;;;12.20;99.90;;;;;;5123563;27;20438;-58
2023/11/08 11:56:25;;;;;;;0.50;0.20;;;12.20;99.90;;;;;;5126519;27;20533;-58
2023/11/08 11:58:52;;;;;;;0.50;0.20;;;12.10;99.90;;;;;;5122919;27;20431;-58
2023/11/08 12:01:21;;;;;;;0.40;0.20;;;12.10;99.90;;;;;;5127052;27;20450;-58
2023/11/08 12:03:51;;;;;;;0.50;0.20;;;12.20;99.90;;;;;;5123610;27;20434;-58
2023/11/08 12:06:20;;;;;;;0.30;0.20;;;12.10;99.90;;;;;;5122736;27;20802;-58
2023/11/08 12:08:47;;;;;;;0.40;0.20;;;12.10;99.90;;;;;;5126088;27;20430;-58
2023/11/08 12:11:15;;;;;;;1.08;0.20;;;12.00;99.90;;;;;;5125078;27;20876;-57
2023/11/08 12:13:49;;;;;;;0.40;0.20;;;11.70;99.90;;;;;;5124460;27;20580;-58
2023/11/08 12:16:17;;;;;;;0.45;0.10;;;11.70;99.90;;;;;;5124717;27;20418;-59
2023/11/08 12:18:45;;;;;;;0.40;0.20;;;11.60;99.90;;;;;;5123736;27;20710;-58
2023/11/08 12:21:15;;;;;;;0.80;0.20;;;11.50;99.90;;;;;;5122452;27;20526;-58
2023/11/08 12:23:43;;;;;;;1.02;0.10;;;11.40;99.90;;;;;;5124904;27;20705;-59
2023/11/08 12:26:11;;;;;;;0.60;0.20;;;11.50;99.90;;;;;;5127113;27;20422;-59
2023/11/08 12:28:40;;;;;;;0.60;0.20;;;11.40;99.90;;;;;;5127785;27;20483;-60
2023/11/08 12:31:11;;;;;;;2.00;0.20;;;11.50;99.90;;;;;;5125575;27;20438;-59
2023/11/08 12:33:39;;;;;;;0.40;0.10;;;11.40;1.00;;;;;;5129126;27;20422;-60
2023/11/08 12:36:10;;;;;;;0.40;0.10;;;11.40;99.90;;;;;;5126903;27;20419;-59
2023/11/08 12:38:41;;;;;;;0.40;0.10;;;11.40;99.90;;;;;;5127765;27;20842;-59
2023/11/08 12:41:13;;;;;;;0.30;0.10;;;11.50;99.90;;;;;;5124115;27;20837;-59
2023/11/08 12:43:40;;;;;;;0.30;0.10;;;11.70;99.90;;;;;;5122870;27;20526;-59
2023/11/08 12:46:09;;;;;;;0.40;0.20;;;11.90;99.90;;;;;;5124453;27;20644;-59
2023/11/08 12:48:38;;;;;;;0.97;0.20;;;11.80;99.90;;;;;;5121140;27;20452;-58
2023/11/08 12:51:10;;;;;;;0.40;0.20;;;11.80;99.90;;;;;;5123922;27;20868;-58
2023/11/08 12:53:48;;;;;;;0.90;0.10;;;11.90;99.90;;;;;;5124479;27;21092;-58
2023/11/08 12:56:16;;;;;;;0.50;0.10;;;12.00;99.90;;;;;;5124512;27;20878;-59
2023/11/08 12:58:45;;;;;;;0.30;0.10;;;12.10;99.90;;;;;;5124022;27;20588;-59
2023/11/08 13:01:21;;;;;;;0.40;0.10;;;12.30;99.90;;;;;;5121967;27;20437;-59